sensor_id;sensor_type;location;lat;lon;timestamp;pressure;altitude;pressure_sealevel;temperature;humidity
28626;BME280;18905;42.668;23.364;2023-08-30T00:02:15;94190.59;;;25.60;100.00
28626;BME280;18905;42.668;23.364;2023-08-30T00:04:42;94194.25;;;25.85;100.00
28626;BME280;18905;42.668;23.364;2023-08-30T00:07:07;94173.47;;;25.65;100.00
28626;BME280;18905;42.668;23.364;2023-08-30T00:09:32;94188.19;;;25.30;100.00
28626;BME280;18905;42.668;23.364;2023-08-30T00:11:58;94188.19;;;24.78;100.00
28626;BME280;18905;42.668;23.364;2023-08-30T00:14:23;94197.31;;;25.11;100.00
28626;BME280;18905;42.668;23.364;2023-08-30T00:16:49;94170.72;;;25.01;100.00
28626;BME280;18905;42.668;23.364;2023-08-30T00:19:14;94180.16;;;23.70;100.00
28626;BME280;18905;42.668;23.364;2023-08-30T00:21:39;94181.03;;;23.87;100.00
28626;BME280;18905;42.668;23.364;2023-08-30T00:24:05;94181.22;;;24.74;100.00
28626;BME280;18905;42.668;23.364;2023-08-30T00:26:31;94184.44;;;23.94;100.00
28626;BME280;18905;42.668;23.364;2023-08-30T00:28:56;94188.59;;;23.14;100.00
28626;BME280;18905;42.668;23.364;2023-08-30T00:31:21;94187.34;;;23.41;100.00
28626;BME280;18905;42.668;23.364;2023-08-30T00:33:48;94172.50;;;24.20;100.00
28626;BME280;18905;42.668;23.364;2023-08-30T00:36:13;94169.34;;;23.37;100.00
28626;BME280;18905;42.668;23.364;2023-08-30T00:38:39;94159.50;;;23.13;100.00
28626;BME280;18905;42.668;23.364;2023-08-30T00:41:04;94169.03;;;23.54;100.00
28626;BME280;18905;42.668;23.364;2023-08-30T00:43:30;94185.72;;;23.67;100.00
28626;BME280;18905;42.668;23.364;2023-08-30T00:45:55;94186.88;;;23.69;100.00
28626;BME280;18905;42.668;23.364;2023-08-30T00:48:21;94188.28;;;24.55;100.00
28626;BME280;18905;42.668;23.364;2023-08-30T00:50:47;94190.25;;;24.00;100.00
28626;BME280;18905;42.668;23.364;2023-08-30T00:53:13;94196.94;;;23.99;100.00
28626;BME280;18905;42.668;23.364;2023-08-30T00:55:39;94190.38;;;22.44;100.00
28626;BME280;18905;42.668;23.364;2023-08-30T00:58:05;94191.97;;;21.41;100.00
28626;BME280;18905;42.668;23.364;2023-08-30T01:00:31;94189.75;;;22.03;100.00
28626;BME280;18905;42.668;23.364;2023-08-30T01:02:57;94189.91;;;23.06;100.00
28626;BME280;18905;42.668;23.364;2023-08-30T01:05:22;94182.69;;;23.61;100.00
28626;BME280;18905;42.668;23.364;2023-08-30T01:07:49;94218.47;;;23.15;100.00
28626;BME280;18905;42.668;23.364;2023-08-30T01:10:15;94226.31;;;23.17;100.00
28626;BME280;18905;42.668;23.364;2023-08-30T01:12:44;94227.66;;;23.32;100.00
28626;BME280;18905;42.668;23.364;2023-08-30T01:15:21;94218.34;;;23.49;100.00
28626;BME280;18905;42.668;23.364;2023-08-30T01:17:48;94214.22;;;24.22;100.00
28626;BME280;18905;42.668;23.364;2023-08-30T01:20:16;94223.72;;;23.33;100.00
28626;BME280;18905;42.668;23.364;2023-08-30T01:23:03;94242.56;;;22.81;100.00
28626;BME280;18905;42.668;23.364;2023-08-30T01:28:04;94213.09;;;24.39;100.00
28626;BME280;18905;42.668;23.364;2023-08-30T01:30:34;94223.47;;;24.71;100.00
28626;BME280;18905;42.668;23.364;2023-08-30T01:33:03;94209.41;;;24.07;100.00
28626;BME280;18905;42.668;23.364;2023-08-30T01:35:30;94213.44;;;24.02;100.00
28626;BME280;18905;42.668;23.364;2023-08-30T01:38:02;94202.50;;;23.53;100.00
28626;BME280;18905;42.668;23.364;2023-08-30T01:40:31;94205.38;;;23.92;100.00
28626;BME280;18905;42.668;23.364;2023-08-30T01:42:57;94213.94;;;23.97;100.00
28626;BME280;18905;42.668;23.364;2023-08-30T01:45:24;94219.56;;;23.90;100.00
28626;BME280;18905;42.668;23.364;2023-08-30T01:47:50;94217.41;;;24.01;100.00
28626;BME280;18905;42.668;23.364;2023-08-30T01:50:19;94196.75;;;24.09;100.00
28626;BME280;18905;42.668;23.364;2023-08-30T01:52:45;94214.34;;;23.96;100.00
28626;BME280;18905;42.668;23.364;2023-08-30T01:55:13;94198.47;;;23.80;100.00
28626;BME280;18905;42.668;23.364;2023-08-30T01:57:39;94220.16;;;24.21;100.00
28626;BME280;18905;42.668;23.364;2023-08-30T02:00:05;94219.09;;;23.72;100.00
28626;BME280;18905;42.668;23.364;2023-08-30T02:02:31;94224.41;;;23.83;100.00
28626;BME280;18905;42.668;23.364;2023-08-30T02:04:56;94221.94;;;23.88;100.00
28626;BME280;18905;42.668;23.364;2023-08-30T02:10:08;94209.75;;;24.48;100.00
28626;BME280;18905;42.668;23.364;2023-08-30T02:12:54;94197.56;;;23.87;100.00
28626;BME280;18905;42.668;23.364;2023-08-30T02:15:21;94213.94;;;23.97;100.00
28626;BME280;18905;42.668;23.364;2023-08-30T02:17:49;94209.94;;;23.56;100.00
28626;BME280;18905;42.668;23.364;2023-08-30T02:20:16;94198.09;;;23.09;100.00
28626;BME280;18905;42.668;23.364;2023-08-30T02:22:41;94192.78;;;22.99;100.00
28626;BME280;18905;42.668;23.364;2023-08-30T02:25:07;94211.06;;;22.86;100.00
28626;BME280;18905;42.668;23.364;2023-08-30T02:27:33;94204.25;;;23.43;100.00
28626;BME280;18905;42.668;23.364;2023-08-30T02:29:59;94187.72;;;23.66;100.00
28626;BME280;18905;42.668;23.364;2023-08-30T02:32:24;94193.53;;;23.72;100.00
28626;BME280;18905;42.668;23.364;2023-08-30T02:34:51;94199.47;;;23.90;100.00
28626;BME280;18905;42.668;23.364;2023-08-30T02:37:18;94197.44;;;24.52;100.00
28626;BME280;18905;42.668;23.364;2023-08-30T02:39:44;94200.72;;;24.28;100.00
28626;BME280;18905;42.668;23.364;2023-08-30T02:42:09;94194.84;;;24.06;100.00
28626;BME280;18905;42.668;23.364;2023-08-30T02:44:34;94195.19;;;24.28;100.00
28626;BME280;18905;42.668;23.364;2023-08-30T02:47:00;94194.56;;;23.78;100.00
28626;BME280;18905;42.668;23.364;2023-08-30T02:49:25;94195.56;;;23.87;100.00
28626;BME280;18905;42.668;23.364;2023-08-30T02:51:51;94196.47;;;24.23;100.00
28626;BME280;18905;42.668;23.364;2023-08-30T02:54:16;94197.66;;;24.22;100.00
28626;BME280;18905;42.668;23.364;2023-08-30T02:56:42;94191.63;;;23.23;100.00
28626;BME280;18905;42.668;23.364;2023-08-30T02:59:08;94202.13;;;22.78;100.00
28626;BME280;18905;42.668;23.364;2023-08-30T03:01:34;94193.50;;;22.76;100.00
28626;BME280;18905;42.668;23.364;2023-08-30T03:04:00;94205.78;;;22.68;100.00
28626;BME280;18905;42.668;23.364;2023-08-30T03:06:25;94200.34;;;22.35;100.00
28626;BME280;18905;42.668;23.364;2023-08-30T03:08:53;94199.94;;;22.93;100.00
28626;BME280;18905;42.668;23.364;2023-08-30T03:11:18;94186.47;;;23.25;100.00
28626;BME280;18905;42.668;23.364;2023-08-30T03:13:43;94186.72;;;23.07;100.00
28626;BME280;18905;42.668;23.364;2023-08-30T03:16:13;94195.97;;;22.94;100.00
28626;BME280;18905;42.668;23.364;2023-08-30T03:18:39;94198.84;;;22.87;100.00
28626;BME280;18905;42.668;23.364;2023-08-30T03:21:05;94189.13;;;22.79;100.00
28626;BME280;18905;42.668;23.364;2023-08-30T03:23:31;94214.81;;;22.99;100.00
28626;BME280;18905;42.668;23.364;2023-08-30T03:25:58;94188.66;;;23.10;100.00
28626;BME280;18905;42.668;23.364;2023-08-30T03:28:23;94200.16;;;23.05;100.00
28626;BME280;18905;42.668;23.364;2023-08-30T03:30:48;94182.75;;;22.85;100.00
28626;BME280;18905;42.668;23.364;2023-08-30T03:33:14;94194.28;;;22.77;100.00
28626;BME280;18905;42.668;23.364;2023-08-30T03:35:39;94205.41;;;22.40;100.00
28626;BME280;18905;42.668;23.364;2023-08-30T03:38:05;94191.56;;;21.83;100.00
28626;BME280;18905;42.668;23.364;2023-08-30T03:40:30;94200.69;;;21.29;100.00
28626;BME280;18905;42.668;23.364;2023-08-30T03:42:56;94197.28;;;21.15;100.00
28626;BME280;18905;42.668;23.364;2023-08-30T03:45:21;94196.91;;;21.16;100.00
28626;BME280;18905;42.668;23.364;2023-08-30T03:47:46;94193.06;;;21.07;100.00
28626;BME280;18905;42.668;23.364;2023-08-30T03:50:12;94202.72;;;20.70;100.00
28626;BME280;18905;42.668;23.364;2023-08-30T03:52:37;94205.41;;;20.02;100.00
28626;BME280;18905;42.668;23.364;2023-08-30T03:55:03;94217.66;;;19.62;100.00
28626;BME280;18905;42.668;23.364;2023-08-30T03:57:28;94220.75;;;19.71;100.00
28626;BME280;18905;42.668;23.364;2023-08-30T03:59:54;94200.09;;;19.35;100.00
28626;BME280;18905;42.668;23.364;2023-08-30T04:02:19;94227.06;;;19.61;100.00
28626;BME280;18905;42.668;23.364;2023-08-30T04:04:47;94222.03;;;20.49;100.00
28626;BME280;18905;42.668;23.364;2023-08-30T04:07:13;94223.91;;;21.25;100.00
28626;BME280;18905;42.668;23.364;2023-08-30T04:09:38;94231.09;;;21.93;100.00
28626;BME280;18905;42.668;23.364;2023-08-30T04:12:04;94215.56;;;22.43;100.00
28626;BME280;18905;42.668;23.364;2023-08-30T04:14:30;94223.19;;;21.98;100.00
28626;BME280;18905;42.668;23.364;2023-08-30T04:16:55;94224.03;;;21.92;100.00
28626;BME280;18905;42.668;23.364;2023-08-30T04:19:21;94235.97;;;21.78;100.00
28626;BME280;18905;42.668;23.364;2023-08-30T04:21:46;94225.34;;;22.14;100.00
28626;BME280;18905;42.668;23.364;2023-08-30T04:24:12;94243.97;;;22.66;100.00
28626;BME280;18905;42.668;23.364;2023-08-30T04:26:37;94242.44;;;23.41;100.00
28626;BME280;18905;42.668;23.364;2023-08-30T04:29:03;94250.19;;;23.50;100.00
28626;BME280;18905;42.668;23.364;2023-08-30T04:31:28;94248.66;;;24.53;100.00
28626;BME280;18905;42.668;23.364;2023-08-30T04:33:54;94255.28;;;25.30;100.00
28626;BME280;18905;42.668;23.364;2023-08-30T04:36:21;94244.53;;;26.12;100.00
28626;BME280;18905;42.668;23.364;2023-08-30T04:38:46;94260.25;;;26.44;100.00
28626;BME280;18905;42.668;23.364;2023-08-30T04:41:12;94256.94;;;26.65;100.00
28626;BME280;18905;42.668;23.364;2023-08-30T04:43:37;94269.97;;;26.36;100.00
28626;BME280;18905;42.668;23.364;2023-08-30T04:46:03;94283.03;;;27.05;100.00
28626;BME280;18905;42.668;23.364;2023-08-30T04:48:28;94293.38;;;27.42;98.97
28626;BME280;18905;42.668;23.364;2023-08-30T04:51:04;94291.56;;;26.98;100.00
28626;BME280;18905;42.668;23.364;2023-08-30T04:53:29;94281.63;;;26.15;100.00
28626;BME280;18905;42.668;23.364;2023-08-30T04:55:54;94277.22;;;25.69;100.00
28626;BME280;18905;42.668;23.364;2023-08-30T04:58:20;94266.50;;;25.04;100.00
28626;BME280;18905;42.668;23.364;2023-08-30T05:00:46;94268.81;;;24.11;100.00
28626;BME280;18905;42.668;23.364;2023-08-30T05:03:11;94276.25;;;23.91;100.00
28626;BME280;18905;42.668;23.364;2023-08-30T05:05:37;94275.00;;;23.73;100.00
28626;BME280;18905;42.668;23.364;2023-08-30T05:08:02;94278.91;;;23.26;100.00
28626;BME280;18905;42.668;23.364;2023-08-30T05:10:29;94261.22;;;23.23;100.00
28626;BME280;18905;42.668;23.364;2023-08-30T05:12:54;94264.50;;;23.41;100.00
28626;BME280;18905;42.668;23.364;2023-08-30T05:15:19;94281.03;;;23.64;100.00
28626;BME280;18905;42.668;23.364;2023-08-30T05:17:45;94287.75;;;23.86;100.00
28626;BME280;18905;42.668;23.364;2023-08-30T05:20:10;94272.72;;;24.33;100.00
28626;BME280;18905;42.668;23.364;2023-08-30T05:22:36;94276.44;;;24.23;100.00
28626;BME280;18905;42.668;23.364;2023-08-30T05:25:01;94273.06;;;24.16;100.00
28626;BME280;18905;42.668;23.364;2023-08-30T05:27:27;94258.97;;;23.87;100.00
28626;BME280;18905;42.668;23.364;2023-08-30T05:29:53;94281.06;;;24.49;100.00
28626;BME280;18905;42.668;23.364;2023-08-30T05:32:20;94289.88;;;24.02;100.00
28626;BME280;18905;42.668;23.364;2023-08-30T05:34:46;94296.63;;;24.40;100.00
28626;BME280;18905;42.668;23.364;2023-08-30T05:37:11;94287.47;;;23.81;100.00
28626;BME280;18905;42.668;23.364;2023-08-30T05:39:36;94291.41;;;24.03;100.00
28626;BME280;18905;42.668;23.364;2023-08-30T05:42:02;94274.25;;;24.54;100.00
28626;BME280;18905;42.668;23.364;2023-08-30T05:44:28;94277.06;;;25.09;100.00
28626;BME280;18905;42.668;23.364;2023-08-30T05:46:53;94291.13;;;25.34;100.00
28626;BME280;18905;42.668;23.364;2023-08-30T05:49:19;94261.06;;;25.52;100.00
28626;BME280;18905;42.668;23.364;2023-08-30T05:51:44;94283.44;;;25.89;100.00
28626;BME280;18905;42.668;23.364;2023-08-30T05:54:09;94284.56;;;26.08;100.00
28626;BME280;18905;42.668;23.364;2023-08-30T05:56:35;94280.59;;;25.61;100.00
28626;BME280;18905;42.668;23.364;2023-08-30T05:59:00;94274.69;;;25.91;100.00
28626;BME280;18905;42.668;23.364;2023-08-30T06:01:26;94271.66;;;26.17;100.00
28626;BME280;18905;42.668;23.364;2023-08-30T06:03:51;94270.84;;;26.61;100.00
28626;BME280;18905;42.668;23.364;2023-08-30T06:06:16;94278.38;;;27.02;92.37
28626;BME280;18905;42.668;23.364;2023-08-30T06:08:42;94283.75;;;27.34;90.24
28626;BME280;18905;42.668;23.364;2023-08-30T06:11:07;94269.22;;;27.55;86.87
28626;BME280;18905;42.668;23.364;2023-08-30T06:13:33;94276.09;;;27.50;82.24
28626;BME280;18905;42.668;23.364;2023-08-30T06:15:58;94276.22;;;27.47;87.73
28626;BME280;18905;42.668;23.364;2023-08-30T06:18:23;94273.88;;;27.45;89.22
28626;BME280;18905;42.668;23.364;2023-08-30T06:20:49;94281.84;;;27.43;86.65
28626;BME280;18905;42.668;23.364;2023-08-30T06:23:18;94266.25;;;27.49;85.40
28626;BME280;18905;42.668;23.364;2023-08-30T06:25:43;94279.75;;;27.85;85.59
28626;BME280;18905;42.668;23.364;2023-08-30T06:28:09;94271.94;;;28.05;87.39
28626;BME280;18905;42.668;23.364;2023-08-30T06:30:34;94272.19;;;28.32;84.07
28626;BME280;18905;42.668;23.364;2023-08-30T06:33:00;94280.69;;;28.50;84.66
28626;BME280;18905;42.668;23.364;2023-08-30T06:35:25;94291.41;;;28.82;81.06
28626;BME280;18905;42.668;23.364;2023-08-30T06:37:50;94287.94;;;28.69;82.58
28626;BME280;18905;42.668;23.364;2023-08-30T06:40:16;94286.38;;;29.11;75.18
28626;BME280;18905;42.668;23.364;2023-08-30T06:42:41;94283.59;;;28.68;76.92
28626;BME280;18905;42.668;23.364;2023-08-30T06:45:07;94278.19;;;29.08;74.65
28626;BME280;18905;42.668;23.364;2023-08-30T06:47:33;94274.66;;;28.95;73.95
28626;BME280;18905;42.668;23.364;2023-08-30T06:50:00;94170.75;;;28.18;73.99
28626;BME280;18905;42.668;23.364;2023-08-30T06:52:25;94203.22;;;28.09;79.09
28626;BME280;18905;42.668;23.364;2023-08-30T06:54:51;94148.03;;;27.77;76.70
28626;BME280;18905;42.668;23.364;2023-08-30T06:57:16;94150.09;;;27.51;76.83
28626;BME280;18905;42.668;23.364;2023-08-30T06:59:42;94170.47;;;27.70;75.84
28626;BME280;18905;42.668;23.364;2023-08-30T07:07:18;94186.53;;;28.65;72.17
28626;BME280;18905;42.668;23.364;2023-08-30T07:09:43;94236.44;;;29.29;69.33
28626;BME280;18905;42.668;23.364;2023-08-30T07:12:08;94208.97;;;28.36;70.03
28626;BME280;18905;42.668;23.364;2023-08-30T07:14:34;94277.81;;;28.75;74.05
28626;BME280;18905;42.668;23.364;2023-08-30T07:16:59;94281.34;;;28.54;79.94
28626;BME280;18905;42.668;23.364;2023-08-30T07:19:25;94267.66;;;27.91;84.31
28626;BME280;18905;42.668;23.364;2023-08-30T07:21:50;94270.06;;;27.77;85.54
28626;BME280;18905;42.668;23.364;2023-08-30T07:24:15;94273.00;;;27.36;84.58
28626;BME280;18905;42.668;23.364;2023-08-30T07:26:41;94281.59;;;28.00;80.00
28626;BME280;18905;42.668;23.364;2023-08-30T07:29:06;94272.66;;;27.34;82.99
28626;BME280;18905;42.668;23.364;2023-08-30T07:31:32;94274.94;;;26.57;93.01
28626;BME280;18905;42.668;23.364;2023-08-30T07:33:58;94273.94;;;27.04;87.36
28626;BME280;18905;42.668;23.364;2023-08-30T07:36:25;94283.22;;;26.85;88.72
28626;BME280;18905;42.668;23.364;2023-08-30T07:38:51;94293.03;;;27.15;86.19
28626;BME280;18905;42.668;23.364;2023-08-30T07:41:16;94281.06;;;27.93;81.21
28626;BME280;18905;42.668;23.364;2023-08-30T07:43:41;94284.28;;;27.66;82.75
28626;BME280;18905;42.668;23.364;2023-08-30T07:46:07;94275.94;;;28.04;82.45
28626;BME280;18905;42.668;23.364;2023-08-30T07:48:32;94270.16;;;28.11;80.83
28626;BME280;18905;42.668;23.364;2023-08-30T07:50:58;94263.53;;;27.71;82.64
28626;BME280;18905;42.668;23.364;2023-08-30T07:53:23;94269.53;;;27.82;80.77
28626;BME280;18905;42.668;23.364;2023-08-30T07:55:49;94278.97;;;27.84;78.73
28626;BME280;18905;42.668;23.364;2023-08-30T07:58:15;94275.88;;;27.45;79.60
28626;BME280;18905;42.668;23.364;2023-08-30T08:00:40;94283.09;;;27.80;78.19
28626;BME280;18905;42.668;23.364;2023-08-30T08:03:06;94275.13;;;28.50;76.28
28626;BME280;18905;42.668;23.364;2023-08-30T08:05:32;94281.66;;;28.56;76.17
28626;BME280;18905;42.668;23.364;2023-08-30T08:07:59;94273.97;;;28.60;76.16
28626;BME280;18905;42.668;23.364;2023-08-30T08:10:25;94269.19;;;28.82;75.09
28626;BME280;18905;42.668;23.364;2023-08-30T08:12:52;94270.56;;;29.60;71.53
28626;BME280;18905;42.668;23.364;2023-08-30T08:15:17;94276.00;;;29.03;72.21
28626;BME280;18905;42.668;23.364;2023-08-30T08:17:42;94280.06;;;28.89;73.43
28626;BME280;18905;42.668;23.364;2023-08-30T08:20:08;94276.16;;;28.65;72.94
28626;BME280;18905;42.668;23.364;2023-08-30T08:22:34;94274.69;;;29.16;70.77
28626;BME280;18905;42.668;23.364;2023-08-30T08:24:59;94286.66;;;28.83;71.70
28626;BME280;18905;42.668;23.364;2023-08-30T08:27:25;94283.03;;;28.73;64.19
28626;BME280;18905;42.668;23.364;2023-08-30T08:29:50;94278.19;;;28.65;63.09
28626;BME280;18905;42.668;23.364;2023-08-30T08:32:16;94272.31;;;28.84;66.72
28626;BME280;18905;42.668;23.364;2023-08-30T08:34:41;94282.06;;;29.10;67.62
28626;BME280;18905;42.668;23.364;2023-08-30T08:37:07;94282.94;;;28.42;70.60
28626;BME280;18905;42.668;23.364;2023-08-30T08:39:32;94274.75;;;29.04;63.29
28626;BME280;18905;42.668;23.364;2023-08-30T08:41:59;94288.47;;;28.08;64.81
28626;BME280;18905;42.668;23.364;2023-08-30T08:44:26;94286.97;;;28.29;69.12
28626;BME280;18905;42.668;23.364;2023-08-30T08:46:52;94283.91;;;28.70;62.46
28626;BME280;18905;42.668;23.364;2023-08-30T08:49:18;94278.34;;;28.70;63.54
28626;BME280;18905;42.668;23.364;2023-08-30T08:51:44;94274.91;;;28.57;58.85
28626;BME280;18905;42.668;23.364;2023-08-30T08:54:11;94273.72;;;28.89;64.27
28626;BME280;18905;42.668;23.364;2023-08-30T08:56:37;94281.19;;;28.79;60.96
28626;BME280;18905;42.668;23.364;2023-08-30T08:59:04;94273.06;;;28.42;59.73
28626;BME280;18905;42.668;23.364;2023-08-30T09:01:33;94277.06;;;28.41;61.54
28626;BME280;18905;42.668;23.364;2023-08-30T09:04:03;94279.22;;;28.80;56.42
28626;BME280;18905;42.668;23.364;2023-08-30T09:06:29;94267.34;;;28.23;58.38
28626;BME280;18905;42.668;23.364;2023-08-30T09:08:54;94274.16;;;27.97;59.70
28626;BME280;18905;42.668;23.364;2023-08-30T09:11:20;94274.06;;;27.88;62.16
28626;BME280;18905;42.668;23.364;2023-08-30T09:13:45;94274.44;;;28.80;60.73
28626;BME280;18905;42.668;23.364;2023-08-30T09:16:14;94275.16;;;28.93;59.27
28626;BME280;18905;42.668;23.364;2023-08-30T09:18:43;94268.44;;;29.03;60.98
28626;BME280;18905;42.668;23.364;2023-08-30T09:21:09;94272.19;;;29.49;56.67
28626;BME280;18905;42.668;23.364;2023-08-30T09:23:35;94261.81;;;29.40;58.98
28626;BME280;18905;42.668;23.364;2023-08-30T09:26:01;94268.47;;;29.73;57.43
28626;BME280;18905;42.668;23.364;2023-08-30T09:28:28;94276.56;;;28.76;62.03
28626;BME280;18905;42.668;23.364;2023-08-30T09:30:53;94266.19;;;28.33;64.96
28626;BME280;18905;42.668;23.364;2023-08-30T09:33:22;94273.00;;;29.49;59.99
28626;BME280;18905;42.668;23.364;2023-08-30T09:35:48;94260.97;;;30.10;57.40
28626;BME280;18905;42.668;23.364;2023-08-30T09:38:17;94268.19;;;29.80;57.92
28626;BME280;18905;42.668;23.364;2023-08-30T09:40:43;94265.50;;;29.68;56.64
28626;BME280;18905;42.668;23.364;2023-08-30T09:43:10;94262.75;;;28.85;59.38
28626;BME280;18905;42.668;23.364;2023-08-30T09:45:36;94256.78;;;29.17;58.78
28626;BME280;18905;42.668;23.364;2023-08-30T09:48:01;94249.94;;;28.88;58.93
28626;BME280;18905;42.668;23.364;2023-08-30T09:50:28;94252.00;;;28.96;58.75
28626;BME280;18905;42.668;23.364;2023-08-30T09:52:58;94245.28;;;29.37;64.84
28626;BME280;18905;42.668;23.364;2023-08-30T09:55:25;94254.28;;;28.46;59.52
28626;BME280;18905;42.668;23.364;2023-08-30T09:57:51;94251.19;;;28.31;63.26
28626;BME280;18905;42.668;23.364;2023-08-30T10:00:17;94232.13;;;28.55;61.30
28626;BME280;18905;42.668;23.364;2023-08-30T10:02:43;94238.97;;;29.06;60.28
28626;BME280;18905;42.668;23.364;2023-08-30T10:05:10;94246.94;;;29.56;57.13
28626;BME280;18905;42.668;23.364;2023-08-30T10:07:37;94227.41;;;29.95;55.89
28626;BME280;18905;42.668;23.364;2023-08-30T10:10:03;94219.41;;;30.24;56.87
28626;BME280;18905;42.668;23.364;2023-08-30T10:12:32;94245.78;;;29.44;58.35
28626;BME280;18905;42.668;23.364;2023-08-30T10:14:58;94224.13;;;31.55;50.40
28626;BME280;18905;42.668;23.364;2023-08-30T10:17:27;94213.72;;;31.56;48.97
28626;BME280;18905;42.668;23.364;2023-08-30T10:19:54;94216.28;;;31.45;49.89
28626;BME280;18905;42.668;23.364;2023-08-30T10:22:21;94231.44;;;31.85;49.65
28626;BME280;18905;42.668;23.364;2023-08-30T10:27:13;94227.75;;;30.87;54.35
28626;BME280;18905;42.668;23.364;2023-08-30T10:29:41;94228.28;;;29.83;56.90
28626;BME280;18905;42.668;23.364;2023-08-30T10:32:08;94237.59;;;31.06;51.82
28626;BME280;18905;42.668;23.364;2023-08-30T10:34:35;94224.78;;;32.53;45.55
28626;BME280;18905;42.668;23.364;2023-08-30T10:37:02;94223.63;;;32.45;45.47
28626;BME280;18905;42.668;23.364;2023-08-30T10:39:41;94221.72;;;32.28;46.23
28626;BME280;18905;42.668;23.364;2023-08-30T10:42:11;94227.69;;;31.56;50.13
28626;BME280;18905;42.668;23.364;2023-08-30T10:44:50;94222.41;;;31.07;51.58
28626;BME280;18905;42.668;23.364;2023-08-30T10:47:23;94231.13;;;30.91;52.02
28626;BME280;18905;42.668;23.364;2023-08-30T10:49:53;94214.56;;;32.50;44.95
28626;BME280;18905;42.668;23.364;2023-08-30T10:52:19;94212.50;;;32.36;45.81
28626;BME280;18905;42.668;23.364;2023-08-30T10:54:44;94205.19;;;32.39;45.30
28626;BME280;18905;42.668;23.364;2023-08-30T10:57:14;94212.44;;;32.45;45.81
28626;BME280;18905;42.668;23.364;2023-08-30T10:59:47;94218.25;;;32.33;44.67
28626;BME280;18905;42.668;23.364;2023-08-30T11:02:13;94219.31;;;31.88;45.99
28626;BME280;18905;42.668;23.364;2023-08-30T11:04:42;94211.50;;;31.36;48.13
28626;BME280;18905;42.668;23.364;2023-08-30T11:07:07;94218.50;;;31.32;47.89
28626;BME280;18905;42.668;23.364;2023-08-30T11:09:33;94203.25;;;30.91;49.01
28626;BME280;18905;42.668;23.364;2023-08-30T11:12:04;94211.94;;;31.76;46.92
28626;BME280;18905;42.668;23.364;2023-08-30T11:14:30;94190.00;;;31.60;48.28
28626;BME280;18905;42.668;23.364;2023-08-30T11:16:55;94211.47;;;30.86;52.57
28626;BME280;18905;42.668;23.364;2023-08-30T11:19:21;94203.63;;;31.58;48.73
28626;BME280;18905;42.668;23.364;2023-08-30T11:21:46;94208.25;;;30.69;49.83
28626;BME280;18905;42.668;23.364;2023-08-30T11:24:12;94187.25;;;31.10;47.98
28626;BME280;18905;42.668;23.364;2023-08-30T11:26:37;94201.53;;;31.44;49.14
28626;BME280;18905;42.668;23.364;2023-08-30T11:29:07;94186.38;;;32.01;45.76
28626;BME280;18905;42.668;23.364;2023-08-30T11:31:33;94184.88;;;31.91;45.22
28626;BME280;18905;42.668;23.364;2023-08-30T11:34:00;94175.94;;;32.25;44.70
28626;BME280;18905;42.668;23.364;2023-08-30T11:36:32;94169.06;;;31.88;44.94
28626;BME280;18905;42.668;23.364;2023-08-30T11:39:01;94171.88;;;32.12;44.65
28626;BME280;18905;42.668;23.364;2023-08-30T11:41:26;94155.00;;;32.44;43.50
28626;BME280;18905;42.668;23.364;2023-08-30T11:43:53;94165.75;;;32.89;42.46
28626;BME280;18905;42.668;23.364;2023-08-30T11:46:25;94161.22;;;32.77;42.25
28626;BME280;18905;42.668;23.364;2023-08-30T11:48:51;94165.31;;;32.67;43.67
28626;BME280;18905;42.668;23.364;2023-08-30T11:51:18;94122.22;;;33.17;41.51
28626;BME280;18905;42.668;23.364;2023-08-30T11:53:45;94154.19;;;32.96;41.50
28626;BME280;18905;42.668;23.364;2023-08-30T11:56:11;94148.78;;;33.07;41.07
28626;BME280;18905;42.668;23.364;2023-08-30T11:58:37;94149.34;;;32.68;41.32
28626;BME280;18905;42.668;23.364;2023-08-30T12:01:04;94149.94;;;33.15;40.42
28626;BME280;18905;42.668;23.364;2023-08-30T12:03:30;94142.59;;;33.32;39.53
28626;BME280;18905;42.668;23.364;2023-08-30T12:05:56;94140.28;;;33.16;39.87
28626;BME280;18905;42.668;23.364;2023-08-30T12:08:30;94132.72;;;33.37;39.22
28626;BME280;18905;42.668;23.364;2023-08-30T12:10:56;94139.22;;;34.37;37.55
28626;BME280;18905;42.668;23.364;2023-08-30T12:13:26;94146.25;;;33.93;36.89
28626;BME280;18905;42.668;23.364;2023-08-30T12:15:52;94144.66;;;33.86;37.19
28626;BME280;18905;42.668;23.364;2023-08-30T12:18:27;94144.81;;;33.63;37.66
28626;BME280;18905;42.668;23.364;2023-08-30T12:21:01;94136.25;;;33.52;38.21
28626;BME280;18905;42.668;23.364;2023-08-30T12:23:31;94130.72;;;33.23;37.50
28626;BME280;18905;42.668;23.364;2023-08-30T12:26:03;94128.91;;;33.54;37.42
28626;BME280;18905;42.668;23.364;2023-08-30T12:28:41;94120.44;;;33.83;37.60
28626;BME280;18905;42.668;23.364;2023-08-30T12:31:07;94113.69;;;33.75;37.47
28626;BME280;18905;42.668;23.364;2023-08-30T12:33:33;94116.97;;;34.54;36.45
28626;BME280;18905;42.668;23.364;2023-08-30T12:35:59;94126.09;;;34.29;35.66
28626;BME280;18905;42.668;23.364;2023-08-30T12:38:25;94115.22;;;34.36;35.46
28626;BME280;18905;42.668;23.364;2023-08-30T12:40:52;94109.78;;;34.07;35.63
28626;BME280;18905;42.668;23.364;2023-08-30T12:43:19;94117.59;;;34.69;34.57
28626;BME280;18905;42.668;23.364;2023-08-30T12:45:45;94107.88;;;34.19;35.19
28626;BME280;18905;42.668;23.364;2023-08-30T12:48:12;94104.41;;;34.75;33.96
28626;BME280;18905;42.668;23.364;2023-08-30T12:50:39;94095.69;;;34.42;33.86
28626;BME280;18905;42.668;23.364;2023-08-30T12:53:05;94106.94;;;34.47;33.62
28626;BME280;18905;42.668;23.364;2023-08-30T12:55:31;94105.16;;;34.04;34.28